Weather at Ulcinj Airport [CLOSED]

Public forecast

Using degrees Celsius for public forecast. Weather courtesy of forecast.io.

Closest aviation weather report (METAR) to Ulcinj Airport

Closest report is Podgorica Airport / Podgorica Golubovci Airbase, 28.5 nm (52.8 km) N.

2024/06/22 13:30 (retrieved 22 minutes ago)

LYPG 221330Z 20007KT 140V230 CAVOK 37/19 Q1008 NOSIG

Closest aviation forecast (TAF) to Ulcinj Airport

Closest forecast is Podgorica Airport / Podgorica Golubovci Airbase, 28.5 nm (52.8 km) N.

2024/06/22 12:21 (retrieved 2 hours ago)

TAF LYPG 221100Z 2212/2312 18007KT CAVOK TX38/2214Z TN23/2303Z